.
WxDataArchive / Data Records for 2014-05-13
2014-05-12 May 2014 2014-05-14

Data Records for Tuesday, 13 May 2014

Time	Temp	Chill	HIndex	Humid	Dewpt	 Wind 	HiWind	WindDir	Rain 	Barom
-----	----	-----	------	-----	-----	------	------	-------	-----	-----
00:00	72.3	72.3	72.3	82	66.5	0	2	292	0.00	29.945 
00:05	72.1	72.1	72.1	82	66.3	0	1	292	0.00	29.945 
00:10	72.0	72.0	72.0	82	66.2	0	1	292	0.00	29.945 
00:15	71.8	71.8	71.8	82	66.0	0	2	292	0.00	29.943 
00:20	71.8	71.8	71.8	82	66.0	0	1	292	0.00	29.943 
00:25	71.6	71.6	71.6	83	66.2	0	1	292	0.00	29.943 
00:30	71.5	71.5	71.5	83	66.1	0	1	292	0.00	29.945 
00:35	71.3	71.3	71.3	83	65.9	0	1	292	0.00	29.945 
00:40	71.1	71.1	71.1	83	65.7	0	1	292	0.00	29.945 
00:45	71.1	71.1	71.1	83	65.7	0	1	292	0.00	29.947 
00:50	71.1	71.1	71.1	83	65.7	0	1	292	0.00	29.947 
00:55	70.9	70.9	70.9	83	65.5	0	0	---	0.00	29.947 
01:00	70.8	70.8	70.8	83	65.4	0	0	---	0.00	29.944 
01:05	70.8	70.8	70.8	83	65.4	0	1	292	0.00	29.944 
01:10	70.6	70.6	70.6	83	65.2	0	1	292	0.00	29.944 
01:15	70.6	70.6	70.6	83	65.2	0	1	292	0.00	29.935 
01:20	70.6	70.6	70.6	83	65.2	0	1	292	0.00	29.935 
01:25	70.4	70.4	70.4	83	65.0	0	1	292	0.00	29.935 
01:30	70.4	70.4	70.4	83	65.0	0	1	292	0.00	29.936 
01:35	70.4	70.4	70.4	83	65.0	0	3	315	0.00	29.936 
01:40	70.4	70.4	70.4	83	65.0	0	1	315	0.00	29.936 
01:45	70.3	70.3	70.3	83	64.9	0	0	---	0.00	29.930 
01:50	70.3	70.3	70.3	83	64.9	0	2	315	0.00	29.930 
01:55	70.4	70.4	70.4	83	65.0	0	1	315	0.00	29.930 
02:00	70.4	70.4	70.4	83	65.0	0	2	315	0.00	29.931 
02:05	70.4	70.4	70.4	82	64.6	0	2	315	0.00	29.931 
02:10	70.3	70.3	70.3	82	64.5	0	0	---	0.00	29.931 
02:15	70.3	70.3	70.3	82	64.5	0	1	315	0.00	29.922 
02:20	70.1	70.1	70.1	82	64.3	0	1	315	0.00	29.922 
02:25	69.9	69.9	69.9	83	64.5	0	1	315	0.00	29.922 
02:30	69.9	69.9	69.9	83	64.5	0	2	315	0.00	29.913 
02:35	69.9	69.9	69.9	83	64.5	0	2	315	0.00	29.913 
02:40	69.9	69.9	69.9	83	64.5	0	3	315	0.00	29.913 
02:45	69.9	69.9	69.9	82	64.1	0	1	315	0.00	29.904 
02:50	69.9	69.9	69.9	82	64.1	0	2	315	0.00	29.904 
02:55	69.8	69.8	69.8	82	64.0	0	2	315	0.00	29.904 
03:00	69.8	69.8	69.8	83	64.4	0	1	315	0.00	29.908 
03:05	69.6	69.6	69.6	83	64.2	0	2	338	0.00	29.908 
03:10	69.4	69.4	69.4	83	64.0	0	1	338	0.00	29.908 
03:15	69.4	69.4	69.4	83	64.0	0	1	338	0.00	29.904 
03:20	69.3	69.3	69.3	84	64.2	0	1	338	0.00	29.904 
03:25	69.3	69.3	69.3	84	64.2	0	1	338	0.00	29.904 
03:30	69.3	69.3	69.3	84	64.2	0	2	338	0.00	29.898 
03:35	69.1	69.1	69.1	84	64.1	0	1	338	0.00	29.898 
03:40	69.1	69.1	69.1	84	64.1	0	3	338	0.00	29.898 
03:45	69.1	69.1	69.1	84	64.1	0	1	338	0.00	29.897 
03:50	69.1	69.1	69.1	85	64.4	0	2	338	0.00	29.897 
03:55	68.9	68.9	68.9	85	64.2	0	1	338	0.00	29.897 
04:00	68.9	68.9	68.9	85	64.2	0	1	338	0.00	29.896 
04:05	69.1	69.1	69.1	85	64.4	0	0	---	0.00	29.896 
04:10	69.1	69.1	69.1	85	64.4	0	3	338	0.00	29.896 
04:15	69.1	69.1	69.1	85	64.4	0	1	45	0.00	29.884 
04:20	69.1	69.1	69.1	85	64.4	0	1	45	0.00	29.884 
04:25	69.1	69.1	69.1	85	64.4	0	1	45	0.00	29.884 
04:30	69.1	69.1	69.1	85	64.4	0	1	45	0.00	29.884 
04:35	69.3	69.3	69.3	85	64.6	0	1	45	0.00	29.884 
04:40	69.3	69.3	69.3	85	64.6	0	1	45	0.00	29.884 
04:45	69.3	69.3	69.3	85	64.6	0	1	0	0.00	29.886 
04:50	69.4	69.4	69.4	85	64.7	0	2	0	0.00	29.886 
04:55	69.6	69.6	69.6	85	64.9	0	2	0	0.00	29.886 
05:00	69.6	69.6	69.6	84	64.5	0	2	292	0.00	29.881 
05:05	69.8	69.8	69.8	84	64.7	0	3	292	0.00	29.881 
05:10	69.9	69.9	69.9	84	64.8	0	1	292	0.00	29.881 
05:15	69.9	69.9	69.9	84	64.8	0	1	292	0.00	29.887 
05:20	69.9	69.9	69.9	84	64.8	0	2	292	0.00	29.887 
05:25	70.1	70.1	70.1	83	64.7	0	3	292	0.00	29.887 
05:30	70.1	70.1	70.1	83	64.7	0	1	292	0.00	29.888 
05:35	70.3	70.3	70.3	83	64.9	1	3	338	0.00	29.888 
05:40	70.3	70.3	70.3	83	64.9	0	2	315	0.00	29.888 
05:45	70.3	70.3	70.3	83	64.9	0	2	315	0.00	29.885 
05:50	70.1	70.1	70.1	83	64.7	0	2	315	0.00	29.885 
05:55	70.1	70.1	70.1	83	64.7	0	4	315	0.00	29.885 
06:00	70.1	70.1	70.1	83	64.7	0	1	315	0.00	29.884 
06:05	70.1	70.1	70.1	83	64.7	0	1	315	0.00	29.884 
06:10	70.1	70.1	70.1	83	64.7	0	2	315	0.00	29.884 
06:15	70.1	70.1	70.1	83	64.7	0	2	315	0.00	29.897 
06:20	69.9	69.9	69.9	83	64.5	0	1	315	0.00	29.897 
06:25	69.9	69.9	69.9	84	64.8	0	2	315	0.00	29.897 
06:30	69.9	69.9	69.9	84	64.8	0	2	315	0.00	29.899 
06:35	69.8	69.8	69.8	84	64.7	0	2	315	0.00	29.899 
06:40	69.8	69.8	69.8	84	64.7	0	1	315	0.00	29.899 
06:45	69.6	69.6	69.6	84	64.5	0	1	315	0.00	29.900 
06:50	69.4	69.4	69.4	84	64.3	0	1	315	0.00	29.900 
06:55	69.4	69.4	69.4	85	64.7	0	0	---	0.00	29.900 
07:00	69.3	69.3	69.3	85	64.6	0	1	315	0.00	29.908 
07:05	69.1	69.1	69.1	85	64.4	0	1	315	0.00	29.908 
07:10	69.1	69.1	69.1	86	64.7	0	1	315	0.00	29.908 
07:15	69.1	69.1	69.1	86	64.7	0	0	---	0.00	29.910 
07:20	69.1	69.1	69.1	86	64.7	0	1	315	0.00	29.910 
07:25	69.1	69.1	69.1	86	64.7	0	0	---	0.00	29.910 
07:30	69.1	69.1	69.1	87	65.1	0	1	315	0.00	29.915 
07:35	69.4	69.4	69.4	86	65.0	0	0	---	0.00	29.915 
07:40	69.8	69.8	69.8	86	65.4	0	0	---	0.00	29.915 
07:45	70.3	70.3	70.3	85	65.6	0	1	315	0.00	29.918 
07:50	70.8	70.8	70.8	84	65.7	0	1	315	0.00	29.918 
07:55	71.3	71.3	71.3	83	65.9	0	2	315	0.00	29.918 
08:00	71.8	71.8	71.8	82	66.0	0	2	315	0.00	29.919 
08:05	72.1	72.1	72.1	81	65.9	0	1	315	0.00	29.919 
08:10	72.7	72.7	72.7	81	66.5	0	1	315	0.00	29.919 
08:15	73.0	73.0	73.0	79	66.1	0	1	315	0.00	29.922 
08:20	73.3	73.3	73.3	79	66.4	0	2	315	0.00	29.922 
08:25	73.3	73.3	73.3	79	66.4	0	1	315	0.00	29.922 
08:30	73.0	73.0	73.0	79	66.1	0	1	315	0.00	29.921 
08:35	73.0	73.0	73.0	80	66.5	0	2	292	0.00	29.921 
08:40	73.3	73.3	73.3	79	66.4	0	2	292	0.00	29.921 
08:45	73.9	73.9	73.9	79	67.0	0	5	315	0.00	29.915 
08:50	74.2	74.2	74.2	77	66.5	1	3	68	0.00	29.915 
08:55	74.6	74.6	74.6	77	66.9	1	2	225	0.00	29.915 
09:00	74.7	74.7	74.7	77	67.0	0	4	270	0.00	29.916 
09:05	74.9	74.9	74.9	77	67.2	0	2	248	0.00	29.916 
09:10	75.1	75.1	76.2	76	67.0	0	1	0	0.00	29.916 
09:15	75.1	75.1	76.1	77	67.4	0	3	315	0.00	29.920 
09:20	74.9	74.9	74.9	77	67.2	0	2	315	0.00	29.920 
09:25	74.9	74.9	74.9	77	67.2	0	2	338	0.00	29.920 
09:30	75.1	75.1	76.1	77	67.4	1	4	315	0.00	29.926 
09:35	75.3	75.3	76.4	76	67.2	1	3	315	0.00	29.926 
09:40	75.3	75.3	76.3	77	67.6	1	4	292	0.00	29.926 
09:45	75.4	75.4	76.5	76	67.3	1	3	292	0.00	29.922 
09:50	75.4	75.4	76.5	76	67.3	0	3	292	0.00	29.922 
09:55	75.6	75.6	76.8	76	67.5	0	3	292	0.00	29.922 
10:00	76.0	76.0	77.3	76	67.9	1	4	292	0.00	29.916 
10:05	76.1	76.1	77.5	75	67.6	1	5	270	0.00	29.916 
10:10	76.5	76.5	78.0	76	68.4	2	9	292	0.00	29.916 
10:15	76.8	76.8	78.4	74	67.9	1	4	248	0.00	29.914 
10:20	77.0	77.0	78.7	73	67.7	1	5	270	0.00	29.914 
10:25	77.4	77.4	79.3	75	68.8	0	2	270	0.00	29.914 
10:30	77.9	77.9	80.0	73	68.5	2	7	292	0.00	29.911 
10:35	78.3	78.3	80.6	73	68.9	1	4	68	0.00	29.911 
10:40	78.5	78.5	80.7	70	67.9	1	5	270	0.00	29.911 
10:45	78.5	78.5	80.9	73	69.1	1	4	248	0.00	29.911 
10:50	78.5	78.5	80.8	71	68.3	1	4	248	0.00	29.911 
10:55	78.8	78.8	81.1	69	67.7	1	4	248	0.00	29.911 
11:00	78.8	78.8	81.1	70	68.2	1	6	90	0.00	29.904 
11:05	79.2	79.2	81.7	70	68.5	1	7	225	0.00	29.904 
11:10	79.6	79.6	82.2	69	68.5	1	6	90	0.00	29.904 
11:15	79.9	79.9	82.8	70	69.2	2	6	22	0.00	29.898 
11:20	80.3	80.3	83.3	69	69.2	1	5	22	0.00	29.898 
11:25	80.7	80.7	83.8	68	69.1	1	6	45	0.00	29.898 
11:30	80.7	80.7	83.7	67	68.7	2	4	90	0.00	29.896 
11:35	80.9	80.9	83.8	66	68.4	2	5	270	0.00	29.896 
11:40	80.9	80.9	83.5	64	67.6	2	6	45	0.00	29.896 
11:45	81.1	81.1	83.8	64	67.7	2	10	45	0.00	29.895 
11:50	80.9	80.9	83.4	63	67.1	3	9	248	0.00	29.895 
11:55	81.2	81.2	84.3	66	68.7	2	6	90	0.00	29.895 
12:00	81.6	81.6	84.7	65	68.7	1	4	112	0.00	29.895 
12:05	82.2	82.2	85.3	63	68.3	2	10	68	0.00	29.895 
12:10	82.4	82.4	85.4	62	68.0	2	5	292	0.00	29.895 
12:15	82.2	82.2	84.9	61	67.4	2	6	90	0.00	29.899 
12:20	82.0	82.0	84.6	61	67.2	2	7	248	0.00	29.899 
12:25	81.8	81.8	84.3	61	67.0	2	7	0	0.00	29.899 
12:30	81.6	81.6	84.2	62	67.3	3	7	248	0.00	29.897 
12:35	81.6	81.6	84.2	62	67.3	2	5	315	0.00	29.897 
12:40	81.4	81.4	83.8	61	66.6	1	4	292	0.00	29.897 
12:45	81.1	81.1	83.2	60	65.9	2	5	248	0.00	29.896 
12:50	81.1	81.1	83.6	63	67.3	2	4	270	0.00	29.896 
12:55	81.6	81.6	83.5	58	65.4	2	11	248	0.00	29.896 
13:00	81.8	81.8	84.1	60	66.5	3	10	270	0.00	29.895 
13:05	81.6	81.6	83.5	58	65.4	3	10	270	0.00	29.895 
13:10	81.2	81.2	83.2	59	65.5	3	7	248	0.00	29.895 
13:15	81.4	81.4	83.3	58	65.2	3	7	248	0.00	29.898 
13:20	81.2	81.2	83.2	59	65.5	1	3	270	0.00	29.898 
13:25	81.6	81.6	83.7	59	65.9	2	6	315	0.00	29.898 
13:30	82.2	82.2	84.3	58	65.9	2	5	270	0.00	29.888 
13:35	82.0	82.0	83.9	57	65.2	2	7	248	0.00	29.888 
13:40	81.6	81.6	83.5	58	65.4	2	7	248	0.00	29.888 
13:45	81.2	81.2	83.0	58	65.0	2	7	248	0.00	29.888 
13:50	81.6	81.6	83.5	58	65.4	2	7	270	0.00	29.888 
13:55	82.2	82.2	84.3	58	65.9	2	4	248	0.00	29.888 
14:00	82.0	82.0	84.1	58	65.7	2	9	248	0.00	29.898 
14:05	77.0	77.0	78.8	65	64.3	7	13	270	0.00	29.898 
14:10	73.2	73.2	73.2	76	65.2	4	7	270	0.00	29.898 
14:15	71.3	71.3	71.3	81	65.2	2	5	270	0.01	29.935 
14:20	70.3	70.3	70.3	85	65.6	2	5	270	0.00	29.935 
14:25	69.8	69.8	69.8	86	65.4	1	5	315	0.00	29.935 
14:30	69.4	69.4	69.4	87	65.4	1	4	292	0.01	29.939 
14:35	69.3	69.3	69.3	88	65.6	1	4	292	0.01	29.939 
14:40	68.9	68.9	68.9	88	65.2	1	4	292	0.00	29.939 
14:45	68.6	68.6	68.6	89	65.2	1	4	292	0.00	29.927 
14:50	68.6	68.6	68.6	90	65.5	1	4	292	0.00	29.927 
14:55	68.9	68.9	68.9	91	66.2	1	3	292	0.01	29.927 
15:00	69.1	69.1	69.1	91	66.4	1	4	292	0.00	29.923 
15:05	69.9	69.9	69.9	92	67.5	1	4	292	0.00	29.923 
15:10	70.6	70.6	70.6	91	67.8	2	4	292	0.00	29.923 
15:15	71.1	71.1	71.1	90	68.0	2	3	292	0.00	29.921 
15:20	72.0	72.0	72.0	89	68.6	1	5	292	0.00	29.921 
15:25	72.7	72.7	72.7	87	68.6	2	6	315	0.00	29.921 
15:30	73.3	73.3	73.3	85	68.5	0	2	315	0.00	29.916 
15:35	73.5	73.5	73.5	83	68.0	1	4	292	0.00	29.916 
15:40	73.7	73.7	73.7	82	67.9	2	7	292	0.00	29.916 
15:45	74.0	74.0	74.0	82	68.1	1	2	292	0.00	29.923 
15:50	74.2	74.2	74.2	81	68.0	1	5	292	0.00	29.923 
15:55	74.4	74.4	74.4	80	67.8	1	4	248	0.00	29.923 
16:00	74.6	74.6	74.6	79	67.6	1	5	270	0.00	29.931 
16:05	74.6	74.6	74.6	78	67.3	1	4	270	0.00	29.931 
16:10	74.4	74.4	74.4	77	66.7	1	6	248	0.00	29.931 
16:15	74.2	74.2	74.2	78	66.9	1	3	248	0.00	29.933 
16:20	74.0	74.0	74.0	78	66.7	1	4	248	0.00	29.933 
16:25	74.0	74.0	74.0	79	67.1	0	3	248	0.00	29.933 
16:30	73.9	73.9	73.9	79	67.0	0	3	248	0.00	29.919 
16:35	73.3	73.3	73.3	79	66.4	0	2	248	0.01	29.919 
16:40	73.0	73.0	73.0	81	66.8	1	4	248	0.00	29.919 
16:45	72.5	72.5	72.5	82	66.7	0	1	248	0.00	29.929 
16:50	72.3	72.3	72.3	84	67.2	0	1	248	0.00	29.929 
16:55	72.3	72.3	72.3	84	67.2	0	1	248	0.01	29.929 
17:00	72.1	72.1	72.1	85	67.3	0	1	248	0.00	29.938 
17:05	72.1	72.1	72.1	85	67.3	0	2	248	0.00	29.938 
17:10	72.0	72.0	72.0	85	67.2	0	3	248	0.00	29.938 
17:15	72.0	72.0	72.0	84	66.9	0	3	248	0.00	29.932 
17:20	72.1	72.1	72.1	83	66.6	1	2	248	0.00	29.932 
17:25	72.3	72.3	72.3	80	65.8	1	3	248	0.00	29.932 
17:30	72.8	72.8	72.8	79	65.9	0	2	248	0.00	29.935 
17:35	73.0	73.0	73.0	76	65.0	1	3	248	0.00	29.935 
17:40	72.8	72.8	72.8	74	64.0	1	4	270	0.00	29.935 
17:45	73.5	73.5	73.5	74	64.7	1	3	270	0.00	29.938 
17:50	73.7	73.7	73.7	71	63.7	1	4	270	0.00	29.938 
17:55	73.3	73.3	73.3	72	63.7	1	3	270	0.00	29.938 
18:00	73.0	73.0	73.0	74	64.2	1	4	270	0.00	29.952 
18:05	72.5	72.5	72.5	76	64.5	1	6	270	0.00	29.952 
18:10	72.3	72.3	72.3	77	64.7	2	5	225	0.00	29.952 
18:15	72.0	72.0	72.0	78	64.8	1	6	248	0.00	29.959 
18:20	71.5	71.5	71.5	77	63.9	3	6	270	0.00	29.959 
18:25	71.5	71.5	71.5	78	64.3	3	5	270	0.00	29.959 
18:30	71.3	71.3	71.3	78	64.1	2	5	270	0.00	29.957 
18:35	70.9	70.9	70.9	78	63.7	2	4	270	0.00	29.957 
18:40	70.9	70.9	70.9	78	63.7	1	4	270	0.00	29.957 
18:45	70.4	70.4	70.4	77	62.8	2	6	270	0.00	29.964 
18:50	70.4	70.4	70.4	77	62.8	1	4	292	0.00	29.964 
18:55	70.3	70.3	70.3	77	62.7	1	3	292	0.00	29.964 
19:00	70.3	70.3	70.3	77	62.7	1	4	292	0.00	29.969 
19:05	70.1	70.1	70.1	78	62.9	1	3	292	0.00	29.969 
19:10	69.9	69.9	69.9	77	62.3	2	5	292	0.00	29.969 
19:15	69.8	69.8	69.8	77	62.3	2	4	292	0.00	29.962 
19:20	69.6	69.6	69.6	78	62.4	1	3	292	0.00	29.962 
19:25	69.6	69.6	69.6	78	62.4	1	3	292	0.00	29.962 
19:30	69.4	69.4	69.4	78	62.2	2	5	292	0.00	29.971 
19:35	69.1	69.1	69.1	77	61.6	3	6	270	0.00	29.971 
19:40	68.9	68.9	68.9	77	61.4	2	4	270	0.00	29.971 
19:45	68.8	68.8	68.8	78	61.7	2	4	270	0.00	29.982 
19:50	68.8	68.8	68.8	78	61.7	1	4	270	0.00	29.982 
19:55	68.4	68.4	68.4	80	62.0	1	5	270	0.00	29.982 
20:00	68.1	68.1	68.1	81	62.0	1	3	270	0.00	29.983 
20:05	67.6	67.6	67.6	82	61.9	1	3	270	0.00	29.983 
20:10	67.3	67.3	67.3	83	62.0	0	2	270	0.00	29.983 
20:15	66.9	66.9	66.9	84	61.9	0	1	270	0.00	29.985 
20:20	66.8	66.8	66.8	85	62.1	0	2	270	0.01	29.985 
20:25	66.4	66.4	66.4	86	62.1	0	2	270	0.00	29.985 
20:30	66.0	66.0	66.0	87	62.0	0	2	270	0.00	29.991 
20:35	65.6	65.6	65.6	88	61.9	0	1	270	0.00	29.991 
20:40	65.3	65.3	65.3	88	61.6	0	1	270	0.01	29.991 
20:45	65.2	65.2	65.2	89	61.9	0	1	270	0.00	30.000 
20:50	64.8	64.8	64.8	89	61.5	2	5	270	0.01	30.000 
20:55	64.2	64.2	64.2	89	60.9	2	5	292	0.00	30.000 
21:00	63.7	63.7	63.7	90	60.7	2	4	338	0.01	30.005 
21:05	63.2	63.2	63.2	90	60.2	2	6	315	0.00	30.005 
21:10	62.6	62.6	62.6	90	59.6	2	5	338	0.00	30.005 
21:15	62.4	62.4	62.4	91	59.7	2	4	292	0.00	30.018 
21:20	62.3	62.3	62.3	91	59.6	1	3	292	0.00	30.018 
21:25	62.1	62.1	62.1	91	59.4	1	3	292	0.00	30.018 
21:30	62.0	62.0	62.0	92	59.6	1	3	292	0.00	30.019 
21:35	61.8	61.8	61.8	91	59.1	1	3	292	0.00	30.019 
21:40	61.6	61.6	61.6	92	59.2	0	2	292	0.00	30.019 
21:45	61.5	61.5	61.5	91	58.8	0	2	292	0.00	30.024 
21:50	61.3	61.3	61.3	91	58.6	0	2	292	0.00	30.024 
21:55	61.2	61.2	61.2	91	58.5	0	1	292	0.00	30.024 
22:00	61.0	61.0	61.0	91	58.4	0	1	292	0.00	30.036 
22:05	61.0	61.0	61.0	91	58.4	0	0	---	0.00	30.036 
22:10	61.0	61.0	61.0	92	58.7	0	1	292	0.00	30.036 
22:15	60.9	60.9	60.9	92	58.6	0	0	---	0.00	30.036 
22:20	61.0	61.0	61.0	92	58.7	0	0	---	0.00	30.036 
22:25	61.0	61.0	61.0	92	58.7	0	0	---	0.00	30.036 
22:30	61.0	61.0	61.0	92	58.7	0	1	292	0.00	30.045 
22:35	60.9	60.9	60.9	92	58.6	0	0	---	0.00	30.045 
22:40	60.9	60.9	60.9	92	58.6	0	2	292	0.00	30.045 
22:45	60.9	60.9	60.9	92	58.6	1	2	292	0.00	30.047 
22:50	60.7	60.7	60.7	92	58.4	0	1	292	0.00	30.047 
22:55	60.7	60.7	60.7	92	58.4	0	1	292	0.01	30.047 
23:00	60.7	60.7	60.7	92	58.4	0	2	292	0.00	30.050 
23:05	60.5	60.5	60.5	92	58.2	0	2	292	0.00	30.050 
23:10	60.5	60.5	60.5	92	58.2	1	3	292	0.01	30.050 
23:15	60.2	60.2	60.2	92	57.9	1	3	292	0.01	30.050 
23:20	59.9	59.9	59.9	92	57.6	1	2	292	0.00	30.050 
23:25	59.6	59.6	59.6	92	57.3	1	3	292	0.00	30.050 
23:30	59.5	59.5	59.5	92	57.2	0	2	292	0.00	30.049 
23:35	59.3	59.3	59.3	92	57.0	0	3	292	0.01	30.049 
23:40	58.9	58.9	58.9	92	56.6	1	3	292	0.00	30.049 
23:45	58.6	58.6	58.6	92	56.3	1	2	292	0.00	30.054 
23:50	58.3	58.3	58.3	92	56.0	1	3	292	0.00	30.054 
23:55	58.0	58.0	58.0	92	55.7	2	4	292	0.00	30.054 

CoCoRaHS
IN-AL-39
A2 Web Hosting
Creative Commons License
GoDaddy
search engine by freefind advanced

loaded 2018-11-17 18:58:35 • last modified 2010-11-18 10:43:29
Privacy PolicyDisclaimer
• wx.awcolley.com is powered by PmWiki v.2002016 •
• all content (unless otherwise noted) © 2018 A W Colley